Time;durP1;ratioP1;P1;durP2;ratioP2;P2;SDS_P1;SDS_P2;PMS_P1;PMS_P2;Temp;Humidity;BMP_temperature;BMP_pressure;BME280_temperature;BME280_humidity;BME280_pressure;Samples;Min_cycle;Max_cycle;Signal;HPM_P1;HPM_P2
2023/07/08 00:01:54;;;;;;;;;;;;;;;8.12;100.00;99583.84;5017620;28;20288;-88
2023/07/08 00:04:19;;;;;;;;;;;;;;;8.14;100.00;99589.94;5000886;28;20392;-87
2023/07/08 00:06:44;;;;;;;;;;;;;;;8.11;100.00;99582.97;5010515;28;19921;-85
2023/07/08 00:09:13;;;;;;;;;;;;;;;8.13;100.00;99575.88;5013814;28;20327;-82
2023/07/08 00:11:38;;;;;;;;;;;;;;;8.08;100.00;99569.91;4993373;28;19914;-83
2023/07/08 00:14:03;;;;;;;;;;;;;;;7.99;100.00;99573.75;5013212;28;19932;-89
2023/07/08 00:16:29;;;;;;;;;;;;;;;8.01;100.00;99571.06;5017229;28;19917;-89
2023/07/08 00:18:57;;;;;;;;;;;;;;;7.99;100.00;99567.59;5023835;28;20266;-88
2023/07/08 00:21:22;;;;;;;;;;;;;;;8.04;100.00;99564.78;5018119;28;19928;-86
2023/07/08 00:23:48;;;;;;;;;;;;;;;7.96;100.00;99562.41;5014823;28;19913;-87
2023/07/08 00:26:17;;;;;;;;;;;;;;;8.00;100.00;99561.41;4993514;28;20004;-84
2023/07/08 00:28:42;;;;;;;;;;;;;;;7.99;100.00;99559.66;5009419;28;19917;-85
2023/07/08 00:31:09;;;;;;;;;;;;;;;7.97;100.00;99561.50;5012657;28;20427;-82
2023/07/08 05:17:24;;;;;;;;;;;;;;;7.58;100.00;99630.56;5836557;23;19933;-85
2023/07/08 05:19:51;;;;;;;;;;;;;;;7.54;100.00;99626.28;5015120;28;19922;-93
2023/07/08 05:22:18;;;;;;;;;;;;;;;7.57;100.00;99631.47;4998756;28;19926;-88
2023/07/08 05:24:43;;;;;;;;;;;;;;;7.59;100.00;99637.53;4997172;28;19924;-88
2023/07/08 05:27:08;;;;;;;;;;;;;;;7.63;100.00;99644.44;4997842;28;19917;-87
2023/07/08 05:29:34;;;;;;;;;;;;;;;7.59;100.00;99646.28;4998054;28;20034;-88
2023/07/08 05:31:59;;;;;;;;;;;;;;;7.63;100.00;99644.44;5014694;28;19924;-87
2023/07/08 05:34:24;;;;;;;;;;;;;;;7.61;100.00;99651.53;4998029;28;20376;-84
2023/07/08 05:36:49;;;;;;;;;;;;;;;7.68;100.00;99655.69;5015636;28;19941;-84
2023/07/08 05:39:15;;;;;;;;;;;;;;;7.66;100.00;99654.91;5015776;28;19922;-83
2023/07/08 05:41:40;;;;;;;;;;;;;;;7.73;100.00;99660.81;5015580;28;19917;-84
2023/07/08 05:44:05;;;;;;;;;;;;;;;7.69;100.00;99670.63;5015720;28;20023;-84
2023/07/08 05:46:30;;;;;;;;;;;;;;;7.72;100.00;99673.16;5014007;28;20413;-83
2023/07/08 05:48:56;;;;;;;;;;;;;;;7.76;100.00;99658.94;5015511;28;19921;-84
2023/07/08 05:51:21;;;;;;;;;;;;;;;7.77;100.00;99662.44;5015632;28;19936;-83
2023/07/08 05:53:46;;;;;;;;;;;;;;;7.77;100.00;99667.69;5015357;28;19929;-83
2023/07/08 05:56:11;;;;;;;;;;;;;;;7.71;100.00;99674.06;5015406;28;19918;-84
2023/07/08 05:58:37;;;;;;;;;;;;;;;7.80;100.00;99686.94;5015323;28;19926;-84
2023/07/08 06:01:02;;;;;;;;;;;;;;;7.79;100.00;99701.03;5015086;28;19918;-84
2023/07/08 06:03:27;;;;;;;;;;;;;;;7.84;100.00;99686.84;5013835;28;19921;-88
2023/07/08 06:05:53;;;;;;;;;;;;;;;7.73;100.00;99679.28;5014980;28;19929;-89
2023/07/08 06:08:18;;;;;;;;;;;;;;;7.73;100.00;99685.41;5015161;28;20376;-90
2023/07/08 06:10:44;;;;;;;;;;;;;;;7.74;100.00;99697.69;5015096;28;19918;-87
2023/07/08 06:13:10;;;;;;;;;;;;;;;7.77;100.00;99700.25;4997257;28;19918;-85
2023/07/08 06:15:35;;;;;;;;;;;;;;;7.76;100.00;99693.22;5015180;28;19975;-87
2023/07/08 06:18:02;;;;;;;;;;;;;;;7.71;100.00;99687.25;4995740;28;20052;-85
2023/07/08 06:20:27;;;;;;;;;;;;;;;7.78;100.00;99696.66;5014148;28;19924;-85
2023/07/08 06:22:52;;;;;;;;;;;;;;;7.75;100.00;99693.28;5014783;28;19921;-88
2023/07/08 06:25:18;;;;;;;;;;;;;;;7.71;100.00;99694.31;4997434;28;19918;-94
2023/07/08 06:27:43;;;;;;;;;;;;;;;7.76;100.00;99693.22;4996943;28;19961;-84
2023/07/08 06:30:08;;;;;;;;;;;;;;;7.76;100.00;99698.50;4997001;28;19922;-84
2023/07/08 06:32:34;;;;;;;;;;;;;;;7.80;100.00;99701.91;4995484;28;19952;-85
2023/07/08 06:34:59;;;;;;;;;;;;;;;7.80;100.00;99700.13;4996638;28;20012;-85
2023/07/08 06:37:24;;;;;;;;;;;;;;;7.78;100.00;99698.44;5014532;28;19972;-85
2023/07/08 06:39:49;;;;;;;;;;;;;;;7.85;100.00;99699.09;4993269;28;19918;-85
2023/07/08 06:42:14;;;;;;;;;;;;;;;7.87;100.00;99695.53;4996508;28;19928;-85
2023/07/08 06:44:41;;;;;;;;;;;;;;;7.84;100.00;99705.31;4996515;28;19936;-85
2023/07/08 06:47:07;;;;;;;;;;;;;;;7.89;100.00;99700.75;4994766;28;19922;-87
2023/07/08 06:49:32;;;;;;;;;;;;;;;7.84;100.00;99706.16;4996569;28;19921;-85
2023/07/08 06:51:59;;;;;;;;;;;;;;;7.88;100.00;99701.66;4996049;28;19918;-88
2023/07/08 06:54:25;;;;;;;;;;;;;;;7.87;100.00;99700.78;4996296;28;19921;-87
2023/07/08 06:56:50;;;;;;;;;;;;;;;7.91;100.00;99701.53;4996412;28;20020;-87
2023/07/08 06:59:15;;;;;;;;;;;;;;;7.97;100.00;99698.72;5014245;28;19914;-83
2023/07/08 07:01:40;;;;;;;;;;;;;;;8.08;100.00;99698.34;5012776;28;19928;-84
2023/07/08 08:02:05;;;;;;;;;;;;;;;7.79;100.00;99719.50;5002171;28;20438;-83
2023/07/08 08:04:30;;;;;;;;;;;;;;;7.80;100.00;99720.34;4985530;28;20020;-85
2023/07/08 08:06:56;;;;;;;;;;;;;;;7.84;100.00;99721.16;5003503;28;19925;-83
2023/07/08 08:09:21;;;;;;;;;;;;;;;7.89;100.00;99719.22;5003337;28;19917;-89
2023/07/08 08:11:46;;;;;;;;;;;;;;;7.93;100.00;99720.81;5003358;28;19918;-89
2023/07/08 08:14:11;;;;;;;;;;;;;;;7.99;100.00;99720.63;4983255;28;19918;-83
2023/07/08 08:16:36;;;;;;;;;;;;;;;8.01;100.00;99713.53;5003446;28;19984;-85
2023/07/08 08:19:02;;;;;;;;;;;;;;;8.02;100.00;99709.09;4979448;28;19918;-84
2023/07/08 08:21:27;;;;;;;;;;;;;;;8.00;100.00;99715.28;4985923;28;19929;-89
2023/07/08 08:23:52;;;;;;;;;;;;;;;8.05;100.00;99719.56;4985295;28;19918;-87
2023/07/08 08:26:17;;;;;;;;;;;;;;;7.99;100.00;99723.25;5002795;28;20410;-88
2023/07/08 08:28:43;;;;;;;;;;;;;;;8.09;100.00;99715.88;4984053;28;20248;-84
2023/07/08 08:31:08;;;;;;;;;;;;;;;8.05;100.00;99715.13;4985650;28;19929;-92
2023/07/08 08:33:33;;;;;;;;;;;;;;;8.08;100.00;99715.03;5003106;28;20380;-89
2023/07/08 08:35:58;;;;;;;;;;;;;;;8.09;100.00;99711.50;4981999;28;20368;-89
2023/07/08 08:38:23;;;;;;;;;;;;;;;8.09;100.00;99715.88;4985216;28;20400;-86
2023/07/08 08:40:49;;;;;;;;;;;;;;;8.07;100.00;99713.31;4985655;28;19926;-91
2023/07/08 08:43:31;;;;;;;;;;;;;;;8.12;100.00;99714.03;4978651;28;19968;-89
2023/07/08 08:46:11;;;;;;;;;;;;;;;8.15;100.00;99715.69;4984835;28;20296;-90
2023/07/08 08:48:41;;;;;;;;;;;;;;;8.17;100.00;99719.16;4996881;28;20399;-87
2023/07/08 08:51:11;;;;;;;;;;;;;;;8.18;100.00;99712.94;5002639;28;19918;-86
2023/07/08 08:53:36;;;;;;;;;;;;;;;8.19;100.00;99718.16;4984783;28;19913;-84
2023/07/08 08:56:22;;;;;;;;;;;;;;;8.11;100.00;99714.94;4984854;28;19928;-85
2023/07/08 08:58:54;;;;;;;;;;;;;;;8.14;100.00;99714.84;4991811;28;19913;-88
2023/07/08 09:01:19;;;;;;;;;;;;;;;8.14;100.00;99711.34;4984592;28;19929;-87
2023/07/08 09:03:52;;;;;;;;;;;;;;;8.13;100.00;99714.88;5002249;28;19917;-87
2023/07/08 09:06:28;;;;;;;;;;;;;;;8.18;100.00;99716.47;4984578;28;19918;-87
2023/07/08 09:08:54;;;;;;;;;;;;;;;8.16;100.00;99710.34;5000217;28;19921;-87
2023/07/08 09:11:38;;;;;;;;;;;;;;;8.23;100.00;99712.78;4985071;28;20003;-84
2023/07/08 09:14:03;;;;;;;;;;;;;;;8.21;100.00;99710.19;5001133;28;20279;-83
2023/07/08 09:16:47;;;;;;;;;;;;;;;8.21;100.00;99714.63;4984689;28;20053;-85
2023/07/08 09:19:14;;;;;;;;;;;;;;;8.25;100.00;99713.59;4984199;28;20056;-87
2023/07/08 09:21:51;;;;;;;;;;;;;;;8.21;100.00;99715.47;4985001;28;19937;-87
2023/07/08 09:24:20;;;;;;;;;;;;;;;8.25;100.00;99711.84;4984310;28;19971;-88
2023/07/08 09:26:46;;;;;;;;;;;;;;;8.24;100.00;99703.97;5002221;28;19940;-88
2023/07/08 09:29:12;;;;;;;;;;;;;;;8.24;100.00;99707.47;4982802;28;20067;-91
2023/07/08 09:31:38;;;;;;;;;;;;;;;8.23;100.00;99712.78;5002168;28;20408;-87
2023/07/08 09:34:12;;;;;;;;;;;;;;;8.17;100.00;99714.72;5002555;28;19928;-88
2023/07/08 09:36:41;;;;;;;;;;;;;;;8.16;100.00;99710.34;4984427;28;19922;-91
2023/07/08 09:39:11;;;;;;;;;;;;;;;8.16;100.00;99713.00;5001902;28;20332;-86
2023/07/08 09:41:36;;;;;;;;;;;;;;;8.19;100.00;99704.13;4984732;28;19917;-87
2023/07/08 09:44:14;;;;;;;;;;;;;;;8.18;100.00;99705.91;5000481;28;19918;-88
2023/07/08 09:46:39;;;;;;;;;;;;;;;8.25;100.00;99706.56;4984319;28;19922;-89
2023/07/08 09:49:22;;;;;;;;;;;;;;;8.21;100.00;99702.28;5001718;28;20408;-86
2023/07/08 09:51:50;;;;;;;;;;;;;;;8.23;100.00;99700.44;4984140;28;19957;-89
2023/07/08 09:54:15;;;;;;;;;;;;;;;8.24;100.00;99706.59;4998510;28;19928;-86
2023/07/08 09:56:48;;;;;;;;;;;;;;;8.25;100.00;99705.66;5002199;28;19917;-87
2023/07/08 09:59:16;;;;;;;;;;;;;;;8.29;100.00;99707.31;5000110;28;19922;-87
2023/07/08 10:01:42;;;;;;;;;;;;;;;8.29;100.00;99709.94;4987767;28;19921;-91
2023/07/08 10:04:07;;;;;;;;;;;;;;;8.32;100.00;99704.56;4987948;28;19925;-88
2023/07/08 10:06:33;;;;;;;;;;;;;;;8.30;100.00;99703.75;4987677;28;19924;-86
2023/07/08 10:09:03;;;;;;;;;;;;;;;8.28;100.00;99709.09;4987303;28;20003;-88
2023/07/08 10:11:31;;;;;;;;;;;;;;;8.29;100.00;99704.66;5003638;28;19921;-87
2023/07/08 10:13:59;;;;;;;;;;;;;;;8.30;100.00;99693.19;4985586;28;19928;-86
2023/07/08 10:16:26;;;;;;;;;;;;;;;8.38;100.00;99699.06;4988021;28;20447;-85
2023/07/08 10:18:51;;;;;;;;;;;;;;;8.34;100.00;99705.34;4987496;28;20029;-87
2023/07/08 10:21:23;;;;;;;;;;;;;;;8.30;100.00;99704.63;4988028;28;19973;-86
2023/07/08 10:23:54;;;;;;;;;;;;;;;8.28;100.00;99697.66;4987319;28;19921;-88
2023/07/08 10:26:26;;;;;;;;;;;;;;;8.29;100.00;99702.03;5004531;28;20012;-89
2023/07/08 10:28:58;;;;;;;;;;;;;;;8.30;100.00;99703.75;4985892;28;20255;-86
2023/07/08 10:31:27;;;;;;;;;;;;;;;8.34;100.00;99705.34;4987342;28;19918;-85
2023/07/08 10:34:07;;;;;;;;;;;;;;;8.30;100.00;99703.75;4987103;28;20315;-83
2023/07/08 10:36:51;;;;;;;;;;;;;;;8.32;100.00;99696.63;4987037;28;19924;-87
2023/07/08 10:39:35;;;;;;;;;;;;;;;8.31;100.00;99700.19;4986954;28;20258;-83
2023/07/08 10:42:16;;;;;;;;;;;;;;;8.34;100.00;99698.31;4987054;28;20091;-84
2023/07/08 10:45:07;;;;;;;;;;;;;;;8.35;100.00;99696.53;4985563;28;19965;-82
2023/07/08 10:47:32;;;;;;;;;;;;;;;8.35;100.00;99693.91;4999654;28;19918;-84
2023/07/08 10:50:00;;;;;;;;;;;;;;;8.35;100.00;99692.09;5005226;28;19929;-84
2023/07/08 10:52:26;;;;;;;;;;;;;;;8.33;100.00;99693.09;4986631;28;19925;-84
2023/07/08 10:55:12;;;;;;;;;;;;;;;8.38;100.00;99699.06;4987338;28;19917;-85
2023/07/08 10:57:58;;;;;;;;;;;;;;;8.44;100.00;99696.25;4986762;28;20361;-86
2023/07/08 11:00:23;;;;;;;;;;;;;;;9.04;100.00;99691.38;5002954;28;19952;-85
2023/07/08 11:03:07;;;;;;;;;;;;;;;9.42;100.00;99690.84;5004182;28;19922;-84
2023/07/08 11:05:38;;;;;;;;;;;;;;;9.66;100.00;99694.28;5004115;28;20004;-89
2023/07/08 11:08:03;;;;;;;;;;;;;;;9.72;100.00;99691.38;4986204;28;19972;-83
2023/07/08 11:10:58;;;;;;;;;;;;;;;9.18;100.00;99692.66;5003925;28;19925;-83
2023/07/08 11:13:25;;;;;;;;;;;;;;;8.97;100.00;99689.06;4966175;28;19913;-85
2023/07/08 11:16:06;;;;;;;;;;;;;;;8.88;100.00;99691.09;4985102;28;19922;-84
2023/07/08 11:18:45;;;;;;;;;;;;;;;8.82;100.00;99691.34;4986204;28;20475;-84
2023/07/08 11:21:17;;;;;;;;;;;;;;;8.81;100.00;99694.91;5002735;28;19972;-85
2023/07/08 11:23:45;;;;;;;;;;;;;;;8.90;100.00;99694.56;5001952;28;20386;-85
2023/07/08 11:26:10;;;;;;;;;;;;;;;9.43;100.00;99687.28;5002780;28;19925;-87
2023/07/08 11:28:36;;;;;;;;;;;;;;;9.70;100.00;99692.34;4985703;28;19918;-86
2023/07/08 11:31:02;;;;;;;;;;;;;;;9.91;100.00;99694.13;4986099;28;19928;-86
2023/07/08 11:33:28;;;;;;;;;;;;;;;9.84;100.00;99691.81;5003885;28;19921;-85
2023/07/08 11:35:58;;;;;;;;;;;;;;;9.32;100.00;99694.75;5003459;28;20020;-86
2023/07/08 11:38:24;;;;;;;;;;;;;;;9.07;100.00;99693.91;5002889;28;19925;-87
2023/07/08 11:40:50;;;;;;;;;;;;;;;9.01;100.00;99688.00;5003733;28;20353;-88
2023/07/08 11:43:16;;;;;;;;;;;;;;;8.93;100.00;99687.44;5003525;28;20116;-85
2023/07/08 11:45:43;;;;;;;;;;;;;;;8.88;100.00;99691.09;4984470;28;20004;-87
2023/07/08 11:48:21;;;;;;;;;;;;;;;8.83;100.00;99693.06;4985699;28;19925;-86
2023/07/08 11:50:48;;;;;;;;;;;;;;;8.80;100.00;99689.69;4985495;28;19921;-87
2023/07/08 11:53:34;;;;;;;;;;;;;;;8.75;100.00;99697.78;4986098;28;19922;-86
2023/07/08 11:56:01;;;;;;;;;;;;;;;8.71;100.00;99694.38;4985664;28;19925;-85
2023/07/08 11:58:27;;;;;;;;;;;;;;;8.77;100.00;99692.44;4985926;28;20364;-91
2023/07/08 12:00:56;;;;;;;;;;;;;;;8.70;100.00;99687.38;4984091;28;19921;-86
2023/07/08 12:03:34;;;;;;;;;;;;;;;8.71;100.00;99688.22;5000792;28;19918;-88
2023/07/08 12:06:05;;;;;;;;;;;;;;;8.68;100.00;99683.06;5003064;28;19966;-85
2023/07/08 12:08:33;;;;;;;;;;;;;;;8.70;100.00;99687.38;4985644;28;20283;-83
2023/07/08 12:10:59;;;;;;;;;;;;;;;8.71;100.00;99693.50;5002998;28;19928;-83
2023/07/08 12:13:24;;;;;;;;;;;;;;;8.66;100.00;99695.47;4982286;28;20289;-83
2023/07/08 12:15:50;;;;;;;;;;;;;;;8.72;100.00;99685.53;4984205;28;19918;-84
2023/07/08 12:18:19;;;;;;;;;;;;;;;8.70;100.00;99691.81;5002594;28;19925;-84
2023/07/08 12:20:47;;;;;;;;;;;;;;;8.65;100.00;99683.19;5003262;28;19917;-83
2023/07/08 12:23:14;;;;;;;;;;;;;;;8.66;100.00;99682.25;5002550;28;19953;-87
2023/07/08 12:25:39;;;;;;;;;;;;;;;8.63;100.00;99687.66;5002623;28;19921;-86
2023/07/08 12:28:04;;;;;;;;;;;;;;;8.71;100.00;99696.16;4978978;28;19963;-83
2023/07/08 12:30:31;;;;;;;;;;;;;;;9.00;100.00;99699.47;5001442;28;19922;-84
2023/07/08 12:33:01;;;;;;;;;;;;;;;9.50;100.00;99698.47;4984648;28;19929;-86
2023/07/08 12:35:30;;;;;;;;;;;;;;;9.80;100.00;99694.56;5001687;28;20435;-85
2023/07/08 12:37:58;;;;;;;;;;;;;;;9.93;100.00;99699.38;4985486;28;19925;-83
2023/07/08 12:40:25;;;;;;;;;;;;;;;9.62;100.00;99703.25;5002529;28;19943;-91
2023/07/08 12:42:50;;;;;;;;;;;;;;;9.22;100.00;99697.78;5002585;28;19921;-83
2023/07/08 12:45:17;;;;;;;;;;;;;;;9.15;100.00;99688.34;4982595;28;19971;-89
2023/07/08 12:47:42;;;;;;;;;;;;;;;9.05;100.00;99692.28;5002031;28;19926;-83
2023/07/08 12:50:09;;;;;;;;;;;;;;;9.01;100.00;99691.50;5002722;28;20064;-85
2023/07/08 12:52:35;;;;;;;;;;;;;;;8.93;100.00;99696.22;4999643;28;19922;-89
2023/07/08 12:55:00;;;;;;;;;;;;;;;8.93;100.00;99696.22;4984962;28;19921;-85
2023/07/08 12:57:26;;;;;;;;;;;;;;;8.91;100.00;99701.56;4984581;28;19925;-86
2023/07/08 12:59:51;;;;;;;;;;;;;;;8.87;100.00;99694.69;4983314;28;19937;-86
2023/07/08 13:02:18;;;;;;;;;;;;;;;8.84;100.00;99689.50;5000991;28;19925;-83
2023/07/08 13:04:45;;;;;;;;;;;;;;;8.83;100.00;99702.78;4984426;28;19961;-89
2023/07/08 13:07:43;;;;;;;;;;;;;;;8.83;100.00;99692.22;5002253;28;20389;-84
2023/07/08 13:10:15;;;;;;;;;;;;;;;8.82;100.00;99694.00;4958623;28;19922;-89
2023/07/08 13:12:41;;;;;;;;;;;;;;;8.80;100.00;99695.81;4999031;28;19918;-89
2023/07/08 13:15:13;;;;;;;;;;;;;;;8.80;100.00;99690.53;5001562;28;19952;-90
2023/07/08 13:17:40;;;;;;;;;;;;;;;8.78;100.00;99695.03;4984595;28;19920;-85
2023/07/08 13:20:12;;;;;;;;;;;;;;;9.13;100.00;99695.47;4984215;28;19944;-89
2023/07/08 13:22:37;;;;;;;;;;;;;;;9.66;100.00;99696.91;4980086;28;19934;-91
2023/07/08 13:25:03;;;;;;;;;;;;;;;9.94;100.00;99701.06;5002111;28;19921;-89
2023/07/08 13:27:28;;;;;;;;;;;;;;;10.11;100.00;99706.53;5002341;28;19968;-86
2023/07/08 13:29:56;;;;;;;;;;;;;;;9.92;100.00;99697.63;4983345;28;20296;-83
2023/07/08 13:32:29;;;;;;;;;;;;;;;9.67;100.00;99698.66;4984278;28;20396;-89
2023/07/08 13:34:54;;;;;;;;;;;;;;;10.08;100.00;99689.91;5004033;28;20408;-87
2023/07/08 13:37:24;;;;;;;;;;;;;;;10.27;100.00;99690.84;4988077;28;20336;-84
2023/07/08 13:39:49;;;;;;;;;;;;;;;10.36;100.00;99690.47;5006195;28;19928;-88
2023/07/08 13:42:14;;;;;;;;;;;;;;;9.97;100.00;99679.75;4988246;28;19917;-88
2023/07/08 13:44:46;;;;;;;;;;;;;;;9.54;100.00;99678.88;4986539;28;19922;-87
2023/07/08 13:47:19;;;;;;;;;;;;;;;9.66;100.00;99675.75;5003329;28;20296;-84
2023/07/08 13:49:45;;;;;;;;;;;;;;;10.09;100.00;99678.41;4988157;28;20384;-87
2023/07/08 13:52:10;;;;;;;;;;;;;;;10.34;100.00;99671.16;4987768;28;19918;-86
2023/07/08 13:54:44;;;;;;;;;;;;;;;10.49;100.00;99668.75;4987642;28;20356;-84
2023/07/08 13:57:15;;;;;;;;;;;;;;;10.25;100.00;99682.09;5006125;28;20005;-83
2023/07/08 13:59:40;;;;;;;;;;;;;;;10.21;100.00;99677.00;4986721;28;19932;-86
2023/07/08 14:02:14;;;;;;;;;;;;;;;10.46;100.00;99684.78;5005879;28;19917;-86
2023/07/08 14:04:40;;;;;;;;;;;;;;;10.63;100.00;99682.25;4983366;28;20392;-83
2023/07/08 14:07:10;;;;;;;;;;;;;;;10.68;100.00;99682.91;5005603;28;19968;-88
2023/07/08 14:09:35;;;;;;;;;;;;;;;10.06;100.00;99679.38;5004568;28;20369;-83
2023/07/08 14:12:00;;;;;;;;;;;;;;;10.33;100.00;99682.66;5005455;28;19917;-86
2023/07/08 14:14:25;;;;;;;;;;;;;;;10.54;100.00;99686.16;5004116;28;20004;-88
2023/07/08 14:16:52;;;;;;;;;;;;;;;10.76;100.00;99692.31;5005040;28;19965;-89
2023/07/08 14:19:21;;;;;;;;;;;;;;;10.76;100.00;99690.50;4987294;28;19918;-86
2023/07/08 14:21:49;;;;;;;;;;;;;;;10.17;100.00;99682.44;4987697;28;20000;-89
2023/07/08 14:24:14;;;;;;;;;;;;;;;10.42;100.00;99677.88;4986848;28;19968;-84
2023/07/08 14:26:44;;;;;;;;;;;;;;;10.76;100.00;99689.66;5005042;28;19918;-85
2023/07/08 14:29:09;;;;;;;;;;;;;;;10.83;100.00;99688.44;4986054;28;19918;-88
2023/07/08 14:31:35;;;;;;;;;;;;;;;10.82;100.00;99689.38;4987130;28;19971;-89
2023/07/08 14:34:03;;;;;;;;;;;;;;;10.14;100.00;99684.34;5004711;28;20319;-84
2023/07/08 14:36:28;;;;;;;;;;;;;;;10.52;100.00;99681.88;5006018;28;19925;-82
2023/07/08 14:38:53;;;;;;;;;;;;;;;10.78;100.00;99682.47;5005041;28;20273;-90
2023/07/08 14:41:18;;;;;;;;;;;;;;;10.91;100.00;99680.97;5004926;28;20029;-87
2023/07/08 14:43:44;;;;;;;;;;;;;;;10.95;100.00;99684.38;5003766;28;19917;-83
2023/07/08 14:46:10;;;;;;;;;;;;;;;10.27;100.00;99677.59;5002724;28;19932;-83
2023/07/08 14:48:35;;;;;;;;;;;;;;;9.98;100.00;99670.91;4986469;28;19933;-83
2023/07/08 14:51:00;;;;;;;;;;;;;;;9.77;100.00;99670.03;5004449;28;19918;-84
2023/07/08 14:53:26;;;;;;;;;;;;;;;9.78;100.00;99669.97;4988433;28;19937;-86
2023/07/08 14:55:52;;;;;;;;;;;;;;;10.34;100.00;99665.84;4986878;28;20273;-83
2023/07/08 14:58:18;;;;;;;;;;;;;;;10.61;100.00;99670.88;4999625;28;19972;-83
2023/07/08 15:00:43;;;;;;;;;;;;;;;10.81;100.00;99669.94;5000130;28;19957;-84
2023/07/08 15:03:10;;;;;;;;;;;;;;;10.99;100.00;99673.56;4976407;28;19925;-88
2023/07/08 15:05:35;;;;;;;;;;;;;;;10.55;100.00;99673.78;5004024;28;19925;-86
2023/07/08 15:08:01;;;;;;;;;;;;;;;10.72;100.00;99678.31;5003793;28;20435;-89
2023/07/08 15:10:28;;;;;;;;;;;;;;;10.96;100.00;99684.31;4979121;28;19928;-86
2023/07/08 15:12:54;;;;;;;;;;;;;;;11.06;100.00;99688.25;4997615;28;19922;-86
2023/07/08 15:15:26;;;;;;;;;;;;;;;11.11;100.00;99681.88;4999704;28;19927;-89
2023/07/08 15:17:52;;;;;;;;;;;;;;;10.43;100.00;99676.97;5004638;28;20472;-84
2023/07/08 15:20:18;;;;;;;;;;;;;;;10.05;100.00;99680.34;4978035;28;19922;-89
2023/07/08 15:22:44;;;;;;;;;;;;;;;9.90;100.00;99671.22;4986099;28;19961;-89
2023/07/08 15:25:10;;;;;;;;;;;;;;;10.12;100.00;99675.63;4986248;28;19967;-87
2023/07/08 15:27:36;;;;;;;;;;;;;;;13.33;100.00;99668.78;4975194;28;19930;-87
2023/07/08 15:30:03;;;;;;;;;;;;;;;14.88;100.00;99663.22;4991014;28;19980;-85
2023/07/08 15:32:34;;;;;;;;;;;;;;;13.24;100.00;99662.16;4994373;28;20367;-84
2023/07/08 15:34:59;;;;;;;;;;;;;;;12.71;100.00;99668.59;5001015;28;19922;-84
2023/07/08 15:37:24;;;;;;;;;;;;;;;12.24;100.00;99669.28;4999092;28;19921;-88
2023/07/08 15:39:49;;;;;;;;;;;;;;;12.10;100.00;99670.84;5000641;28;19926;-85
2023/07/08 15:42:15;;;;;;;;;;;;;;;12.14;100.00;99676.88;4965957;28;19926;-91
2023/07/08 15:44:40;;;;;;;;;;;;;;;12.16;100.00;99675.00;4983571;28;19933;-87
2023/07/08 15:47:11;;;;;;;;;;;;;;;11.44;100.00;99676.78;5004455;28;20369;-86
2023/07/08 15:49:37;;;;;;;;;;;;;;;11.52;100.00;99671.94;5006650;28;20364;-91
2023/07/08 15:52:02;;;;;;;;;;;;;;;11.79;100.00;99682.13;4984970;28;19951;-89
2023/07/08 15:54:27;;;;;;;;;;;;;;;11.93;100.00;99681.47;4996795;28;19917;-85
2023/07/08 15:56:53;;;;;;;;;;;;;;;12.00;100.00;99682.91;4986171;28;20297;-87
2023/07/08 15:59:29;;;;;;;;;;;;;;;11.33;100.00;99679.94;4985000;28;19968;-90
2023/07/08 16:01:54;;;;;;;;;;;;;;;11.77;100.00;99686.66;4989901;28;19922;-88
2023/07/08 16:04:23;;;;;;;;;;;;;;;11.95;100.00;99676.94;5002120;28;19948;-85
2023/07/08 16:06:48;;;;;;;;;;;;;;;11.95;100.00;99683.13;4999756;28;20333;-91
2023/07/08 16:09:13;;;;;;;;;;;;;;;11.29;100.00;99681.00;5003512;28;20044;-86
2023/07/08 16:11:39;;;;;;;;;;;;;;;11.15;100.00;99683.44;4983445;28;20000;-88
2023/07/08 16:14:04;;;;;;;;;;;;;;;11.62;100.00;99672.34;5001317;28;19928;-87
2023/07/08 16:16:29;;;;;;;;;;;;;;;11.82;100.00;99668.69;4984841;28;19921;-86
2023/07/08 16:18:55;;;;;;;;;;;;;;;11.89;100.00;99667.47;5002796;28;19980;-86
2023/07/08 16:21:20;;;;;;;;;;;;;;;11.20;100.00;99665.50;4985131;28;19972;-86
2023/07/08 16:23:45;;;;;;;;;;;;;;;11.26;100.00;99665.22;4982843;28;20428;-88
2023/07/08 16:26:13;;;;;;;;;;;;;;;11.61;100.00;99676.78;4984134;28;20045;-90
2023/07/08 16:28:43;;;;;;;;;;;;;;;11.78;100.00;99678.63;4984696;28;20004;-92
2023/07/08 16:31:19;;;;;;;;;;;;;;;11.84;100.00;99673.94;4984428;28;20385;-88
2023/07/08 16:33:45;;;;;;;;;;;;;;;10.97;100.00;99669.25;4986137;28;19929;-88
2023/07/08 16:36:15;;;;;;;;;;;;;;;11.11;100.00;99661.50;5006991;28;19983;-90
2023/07/08 16:38:40;;;;;;;;;;;;;;;11.57;100.00;99669.06;5003439;28;19921;-93
2023/07/08 16:41:09;;;;;;;;;;;;;;;11.75;100.00;99657.53;4982654;28;20388;-91
2023/07/08 16:43:34;;;;;;;;;;;;;;;11.89;100.00;99669.28;4987456;28;20301;-91
2023/07/08 16:45:59;;;;;;;;;;;;;;;11.18;100.00;99664.72;4985977;28;19922;-95
2023/07/08 16:48:25;;;;;;;;;;;;;;;11.37;100.00;99665.56;5000696;28;19921;-91
2023/07/08 16:50:50;;;;;;;;;;;;;;;11.76;100.00;99659.25;5005031;28;19918;-90
2023/07/08 16:53:16;;;;;;;;;;;;;;;11.88;100.00;99655.13;5004603;28;19926;-93
2023/07/08 16:55:41;;;;;;;;;;;;;;;11.95;100.00;99655.69;4986099;28;19984;-93
2023/07/08 16:58:12;;;;;;;;;;;;;;;11.09;100.00;99658.09;5006206;28;20000;-92
2023/07/08 17:00:40;;;;;;;;;;;;;;;11.57;100.00;99654.00;5002701;28;20411;-95
2023/07/08 17:03:08;;;;;;;;;;;;;;;11.87;100.00;99652.53;5007509;28;19922;-94
2023/07/08 17:05:34;;;;;;;;;;;;;;;11.96;100.00;99649.47;4985119;28;19940;-94
2023/07/08 17:08:00;;;;;;;;;;;;;;;12.01;100.00;99652.72;4989536;28;20415;-95
2023/07/08 17:10:26;;;;;;;;;;;;;;;11.06;100.00;99656.44;4997242;28;19918;-93
2023/07/08 17:12:53;;;;;;;;;;;;;;;11.62;100.00;99643.16;4990815;28;19962;-95
2023/07/08 17:15:19;;;;;;;;;;;;;;;11.92;100.00;99648.75;4998465;28;19955;-90
2023/07/08 17:17:53;;;;;;;;;;;;;;;11.97;100.00;99645.88;4998575;28;19925;-89
2023/07/08 17:20:38;;;;;;;;;;;;;;;11.47;100.00;99652.72;4990453;28;19983;-91
2023/07/08 17:23:14;;;;;;;;;;;;;;;10.88;100.00;99651.97;4985630;28;19949;-88
2023/07/08 17:25:39;;;;;;;;;;;;;;;11.60;100.00;99648.53;4986646;28;19926;-89
2023/07/08 17:28:04;;;;;;;;;;;;;;;11.87;100.00;99650.75;5005344;28;19925;-91
2023/07/08 17:30:33;;;;;;;;;;;;;;;12.03;100.00;99650.88;4987926;28;19917;-92
2023/07/08 17:33:00;;;;;;;;;;;;;;;11.73;100.00;99648.78;4987696;28;20021;-86
2023/07/08 17:35:25;;;;;;;;;;;;;;;11.51;100.00;99645.47;4988054;28;19926;-94
2023/07/08 17:37:51;;;;;;;;;;;;;;;11.87;100.00;99645.47;4988745;28;19913;-90
2023/07/08 17:40:16;;;;;;;;;;;;;;;12.02;100.00;99649.16;4987997;28;20292;-89
2023/07/08 17:42:43;;;;;;;;;;;;;;;12.16;100.00;99659.06;5001855;28;19946;-91
2023/07/08 17:45:33;;;;;;;;;;;;;;;11.68;100.00;99656.13;4985932;28;19933;-95
2023/07/08 17:47:58;;;;;;;;;;;;;;;12.00;100.00;99648.38;5006174;28;20860;-90
2023/07/08 17:50:24;;;;;;;;;;;;;;;12.17;100.00;99648.38;5006915;28;20017;-93
2023/07/08 17:52:50;;;;;;;;;;;;;;;12.24;100.00;99648.91;5005416;28;20029;-92
2023/07/08 17:55:16;;;;;;;;;;;;;;;11.47;100.00;99646.56;4990630;28;20011;-94
2023/07/08 17:57:43;;;;;;;;;;;;;;;11.89;100.00;99653.34;5005183;28;19923;-88
2023/07/08 18:00:23;;;;;;;;;;;;;;;12.10;100.00;99657.56;4983270;28;19971;-94
2023/07/08 18:02:49;;;;;;;;;;;;;;;12.26;100.00;99657.66;4980561;28;20050;-93
2023/07/08 18:05:15;;;;;;;;;;;;;;;12.20;100.00;99659.78;5006706;28;19930;-92
2023/07/08 18:07:41;;;;;;;;;;;;;;;11.60;100.00;99663.63;4993118;28;19968;-93
2023/07/08 18:10:06;;;;;;;;;;;;;;;12.10;100.00;99660.22;5004656;28;19925;-89
2023/07/08 18:12:32;;;;;;;;;;;;;;;12.26;100.00;99662.13;4986685;28;19921;-91
2023/07/08 18:14:57;;;;;;;;;;;;;;;12.33;100.00;99667.03;4990215;28;20410;-91
2023/07/08 18:17:23;;;;;;;;;;;;;;;11.88;100.00;99662.22;4987883;28;20380;-88
2023/07/08 18:19:49;;;;;;;;;;;;;;;11.79;100.00;99664.41;5004085;28;19968;-86
2023/07/08 18:22:16;;;;;;;;;;;;;;;12.12;100.00;99668.13;4987243;28;19945;-93
2023/07/08 18:24:42;;;;;;;;;;;;;;;12.28;100.00;99676.16;4985247;28;19926;-87
2023/07/08 18:27:11;;;;;;;;;;;;;;;12.33;100.00;99672.34;4984651;28;20012;-86
2023/07/08 18:29:36;;;;;;;;;;;;;;;11.66;100.00;99673.91;5002722;28;19922;-86